sensor_id;sensor_type;location;lat;lon;timestamp;P1;durP1;ratioP1;P2;durP2;ratioP2
8652;SDS011;4364;52.426;9.424;2023-09-19T00:00:43;6.00;;;2.60;;
8652;SDS011;4364;52.426;9.424;2023-09-19T00:03:14;5.57;;;2.53;;
8652;SDS011;4364;52.426;9.424;2023-09-19T00:05:41;5.03;;;2.87;;
8652;SDS011;4364;52.426;9.424;2023-09-19T00:08:12;5.70;;;2.90;;
8652;SDS011;4364;52.426;9.424;2023-09-19T00:10:40;7.17;;;2.90;;
8652;SDS011;4364;52.426;9.424;2023-09-19T00:13:08;5.03;;;2.97;;
8652;SDS011;4364;52.426;9.424;2023-09-19T00:15:39;4.47;;;2.93;;
8652;SDS011;4364;52.426;9.424;2023-09-19T00:18:07;7.80;;;3.10;;
8652;SDS011;4364;52.426;9.424;2023-09-19T00:20:35;5.63;;;3.10;;
8652;SDS011;4364;52.426;9.424;2023-09-19T00:23:02;4.80;;;2.90;;
8652;SDS011;4364;52.426;9.424;2023-09-19T00:25:30;6.80;;;3.20;;
8652;SDS011;4364;52.426;9.424;2023-09-19T00:27:58;5.40;;;3.30;;
8652;SDS011;4364;52.426;9.424;2023-09-19T00:30:26;6.67;;;3.37;;
8652;SDS011;4364;52.426;9.424;2023-09-19T00:32:53;5.63;;;3.70;;
8652;SDS011;4364;52.426;9.424;2023-09-19T00:35:21;5.70;;;3.43;;
8652;SDS011;4364;52.426;9.424;2023-09-19T00:37:51;7.63;;;3.90;;
8652;SDS011;4364;52.426;9.424;2023-09-19T00:40:18;6.63;;;3.87;;
8652;SDS011;4364;52.426;9.424;2023-09-19T00:42:46;5.40;;;4.13;;
8652;SDS011;4364;52.426;9.424;2023-09-19T00:45:14;7.63;;;4.83;;
8652;SDS011;4364;52.426;9.424;2023-09-19T00:47:43;9.03;;;4.20;;
8652;SDS011;4364;52.426;9.424;2023-09-19T00:50:12;7.27;;;4.13;;
8652;SDS011;4364;52.426;9.424;2023-09-19T00:52:43;6.33;;;4.77;;
8652;SDS011;4364;52.426;9.424;2023-09-19T00:55:10;5.97;;;4.20;;
8652;SDS011;4364;52.426;9.424;2023-09-19T00:57:40;6.00;;;4.63;;
8652;SDS011;4364;52.426;9.424;2023-09-19T01:00:07;7.37;;;4.43;;
8652;SDS011;4364;52.426;9.424;2023-09-19T01:02:42;6.70;;;4.07;;
8652;SDS011;4364;52.426;9.424;2023-09-19T01:05:11;7.60;;;4.50;;
8652;SDS011;4364;52.426;9.424;2023-09-19T01:07:41;12.33;;;5.10;;
8652;SDS011;4364;52.426;9.424;2023-09-19T01:10:08;8.77;;;4.60;;
8652;SDS011;4364;52.426;9.424;2023-09-19T01:18:11;8.83;;;4.77;;
8652;SDS011;4364;52.426;9.424;2023-09-19T01:20:54;9.57;;;4.77;;
8652;SDS011;4364;52.426;9.424;2023-09-19T01:29:47;7.70;;;5.07;;
8652;SDS011;4364;52.426;9.424;2023-09-19T01:32:19;7.80;;;5.27;;
8652;SDS011;4364;52.426;9.424;2023-09-19T01:34:55;11.40;;;4.97;;
8652;SDS011;4364;52.426;9.424;2023-09-19T01:37:25;10.03;;;5.10;;
8652;SDS011;4364;52.426;9.424;2023-09-19T01:40:00;7.47;;;4.83;;
8652;SDS011;4364;52.426;9.424;2023-09-19T01:42:37;6.87;;;4.93;;
8652;SDS011;4364;52.426;9.424;2023-09-19T01:48:25;9.63;;;4.67;;
8652;SDS011;4364;52.426;9.424;2023-09-19T01:51:05;10.90;;;5.40;;
8652;SDS011;4364;52.426;9.424;2023-09-19T01:53:53;8.50;;;5.20;;
8652;SDS011;4364;52.426;9.424;2023-09-19T01:56:32;7.57;;;5.30;;
8652;SDS011;4364;52.426;9.424;2023-09-19T01:59:13;9.50;;;5.07;;
8652;SDS011;4364;52.426;9.424;2023-09-19T02:01:44;7.87;;;5.10;;
8652;SDS011;4364;52.426;9.424;2023-09-19T02:04:12;10.33;;;5.00;;
8652;SDS011;4364;52.426;9.424;2023-09-19T02:06:41;9.23;;;4.70;;
8652;SDS011;4364;52.426;9.424;2023-09-19T02:09:08;9.10;;;4.57;;
8652;SDS011;4364;52.426;9.424;2023-09-19T02:11:35;9.50;;;4.63;;
8652;SDS011;4364;52.426;9.424;2023-09-19T02:14:02;8.57;;;4.83;;
8652;SDS011;4364;52.426;9.424;2023-09-19T02:16:30;8.30;;;5.00;;
8652;SDS011;4364;52.426;9.424;2023-09-19T02:18:57;10.27;;;4.60;;
8652;SDS011;4364;52.426;9.424;2023-09-19T02:21:26;9.83;;;4.60;;
8652;SDS011;4364;52.426;9.424;2023-09-19T02:23:55;8.43;;;4.53;;
8652;SDS011;4364;52.426;9.424;2023-09-19T02:26:22;8.63;;;4.90;;
8652;SDS011;4364;52.426;9.424;2023-09-19T02:28:53;9.97;;;4.63;;
8652;SDS011;4364;52.426;9.424;2023-09-19T02:31:20;11.67;;;4.83;;
8652;SDS011;4364;52.426;9.424;2023-09-19T02:33:46;11.37;;;5.07;;
8652;SDS011;4364;52.426;9.424;2023-09-19T02:36:13;10.00;;;4.57;;
8652;SDS011;4364;52.426;9.424;2023-09-19T02:38:43;11.53;;;4.40;;
8652;SDS011;4364;52.426;9.424;2023-09-19T02:41:10;10.93;;;4.33;;
8652;SDS011;4364;52.426;9.424;2023-09-19T02:43:37;10.57;;;3.97;;
8652;SDS011;4364;52.426;9.424;2023-09-19T02:46:04;10.57;;;4.17;;
8652;SDS011;4364;52.426;9.424;2023-09-19T02:48:31;11.70;;;4.73;;
8652;SDS011;4364;52.426;9.424;2023-09-19T02:50:58;9.77;;;4.40;;
8652;SDS011;4364;52.426;9.424;2023-09-19T02:53:24;9.17;;;4.60;;
8652;SDS011;4364;52.426;9.424;2023-09-19T02:55:51;12.50;;;4.53;;
8652;SDS011;4364;52.426;9.424;2023-09-19T02:58:20;9.87;;;4.30;;
8652;SDS011;4364;52.426;9.424;2023-09-19T03:00:47;5.80;;;4.27;;
8652;SDS011;4364;52.426;9.424;2023-09-19T03:03:17;13.00;;;5.07;;
8652;SDS011;4364;52.426;9.424;2023-09-19T03:05:44;10.67;;;4.80;;
8652;SDS011;4364;52.426;9.424;2023-09-19T03:08:15;9.77;;;4.80;;
8652;SDS011;4364;52.426;9.424;2023-09-19T03:10:45;9.53;;;5.07;;
8652;SDS011;4364;52.426;9.424;2023-09-19T03:13:13;9.30;;;4.90;;
8652;SDS011;4364;52.426;9.424;2023-09-19T03:15:44;10.07;;;4.73;;
8652;SDS011;4364;52.426;9.424;2023-09-19T03:18:15;8.53;;;4.07;;
8652;SDS011;4364;52.426;9.424;2023-09-19T03:20:42;9.60;;;4.70;;
8652;SDS011;4364;52.426;9.424;2023-09-19T03:23:08;11.80;;;4.63;;
8652;SDS011;4364;52.426;9.424;2023-09-19T03:25:36;10.27;;;4.30;;
8652;SDS011;4364;52.426;9.424;2023-09-19T03:28:03;10.13;;;4.03;;
8652;SDS011;4364;52.426;9.424;2023-09-19T03:30:34;13.07;;;4.30;;
8652;SDS011;4364;52.426;9.424;2023-09-19T03:33:03;10.40;;;3.87;;
8652;SDS011;4364;52.426;9.424;2023-09-19T03:35:32;9.67;;;3.90;;
8652;SDS011;4364;52.426;9.424;2023-09-19T03:38:00;9.23;;;3.63;;
8652;SDS011;4364;52.426;9.424;2023-09-19T03:40:27;13.67;;;4.47;;
8652;SDS011;4364;52.426;9.424;2023-09-19T03:42:53;12.23;;;3.77;;
8652;SDS011;4364;52.426;9.424;2023-09-19T03:45:21;8.90;;;3.70;;
8652;SDS011;4364;52.426;9.424;2023-09-19T03:47:50;9.47;;;4.27;;
8652;SDS011;4364;52.426;9.424;2023-09-19T03:50:19;7.73;;;3.90;;
8652;SDS011;4364;52.426;9.424;2023-09-19T03:52:46;8.20;;;3.80;;
8652;SDS011;4364;52.426;9.424;2023-09-19T03:55:13;11.87;;;4.53;;
8652;SDS011;4364;52.426;9.424;2023-09-19T03:57:40;7.87;;;3.67;;
8652;SDS011;4364;52.426;9.424;2023-09-19T04:00:08;9.70;;;3.87;;
8652;SDS011;4364;52.426;9.424;2023-09-19T04:02:38;9.53;;;3.83;;
8652;SDS011;4364;52.426;9.424;2023-09-19T04:05:06;10.63;;;4.03;;
8652;SDS011;4364;52.426;9.424;2023-09-19T04:07:33;8.93;;;4.20;;
8652;SDS011;4364;52.426;9.424;2023-09-19T04:10:00;7.70;;;3.87;;
8652;SDS011;4364;52.426;9.424;2023-09-19T04:12:28;8.00;;;3.77;;
8652;SDS011;4364;52.426;9.424;2023-09-19T04:14:54;14.17;;;4.10;;
8652;SDS011;4364;52.426;9.424;2023-09-19T04:17:20;8.93;;;3.73;;
8652;SDS011;4364;52.426;9.424;2023-09-19T04:19:47;11.53;;;3.50;;
8652;SDS011;4364;52.426;9.424;2023-09-19T04:22:14;12.33;;;4.17;;
8652;SDS011;4364;52.426;9.424;2023-09-19T04:24:41;10.33;;;4.00;;
8652;SDS011;4364;52.426;9.424;2023-09-19T04:27:08;11.43;;;4.10;;
8652;SDS011;4364;52.426;9.424;2023-09-19T04:29:36;9.20;;;4.47;;
8652;SDS011;4364;52.426;9.424;2023-09-19T04:32:04;10.77;;;4.17;;
8652;SDS011;4364;52.426;9.424;2023-09-19T04:34:32;11.80;;;3.87;;
8652;SDS011;4364;52.426;9.424;2023-09-19T04:37:00;12.03;;;4.20;;
8652;SDS011;4364;52.426;9.424;2023-09-19T04:39:27;9.50;;;4.03;;
8652;SDS011;4364;52.426;9.424;2023-09-19T04:41:53;14.23;;;3.93;;
8652;SDS011;4364;52.426;9.424;2023-09-19T04:44:21;11.07;;;4.10;;
8652;SDS011;4364;52.426;9.424;2023-09-19T04:46:47;9.97;;;3.70;;
8652;SDS011;4364;52.426;9.424;2023-09-19T04:49:14;9.30;;;3.70;;
8652;SDS011;4364;52.426;9.424;2023-09-19T04:51:41;11.97;;;4.03;;
8652;SDS011;4364;52.426;9.424;2023-09-19T04:54:08;13.83;;;4.20;;
8652;SDS011;4364;52.426;9.424;2023-09-19T04:56:35;14.50;;;4.13;;
8652;SDS011;4364;52.426;9.424;2023-09-19T04:59:01;14.40;;;5.03;;
8652;SDS011;4364;52.426;9.424;2023-09-19T05:01:29;13.43;;;4.17;;
8652;SDS011;4364;52.426;9.424;2023-09-19T05:03:55;12.30;;;4.47;;
8652;SDS011;4364;52.426;9.424;2023-09-19T05:06:22;11.67;;;4.63;;
8652;SDS011;4364;52.426;9.424;2023-09-19T05:08:49;11.97;;;4.20;;
8652;SDS011;4364;52.426;9.424;2023-09-19T05:11:20;11.20;;;4.57;;
8652;SDS011;4364;52.426;9.424;2023-09-19T05:13:48;11.37;;;4.80;;
8652;SDS011;4364;52.426;9.424;2023-09-19T05:16:22;11.43;;;4.53;;
8652;SDS011;4364;52.426;9.424;2023-09-19T05:18:48;12.93;;;4.83;;
8652;SDS011;4364;52.426;9.424;2023-09-19T05:21:16;9.33;;;4.93;;
8652;SDS011;4364;52.426;9.424;2023-09-19T05:23:43;12.60;;;5.07;;
8652;SDS011;4364;52.426;9.424;2023-09-19T05:26:10;11.13;;;4.90;;
8652;SDS011;4364;52.426;9.424;2023-09-19T05:28:37;12.23;;;5.33;;
8652;SDS011;4364;52.426;9.424;2023-09-19T05:31:04;10.47;;;4.90;;
8652;SDS011;4364;52.426;9.424;2023-09-19T05:33:31;11.87;;;5.23;;
8652;SDS011;4364;52.426;9.424;2023-09-19T05:35:58;11.33;;;5.00;;
8652;SDS011;4364;52.426;9.424;2023-09-19T05:38:25;13.40;;;5.80;;
8652;SDS011;4364;52.426;9.424;2023-09-19T05:40:53;13.53;;;5.53;;
8652;SDS011;4364;52.426;9.424;2023-09-19T05:43:20;13.17;;;4.77;;
8652;SDS011;4364;52.426;9.424;2023-09-19T05:45:47;10.03;;;5.67;;
8652;SDS011;4364;52.426;9.424;2023-09-19T05:48:14;13.80;;;5.80;;
8652;SDS011;4364;52.426;9.424;2023-09-19T05:50:43;13.00;;;5.33;;
8652;SDS011;4364;52.426;9.424;2023-09-19T05:53:13;16.70;;;5.80;;
8652;SDS011;4364;52.426;9.424;2023-09-19T05:55:41;15.37;;;5.10;;
8652;SDS011;4364;52.426;9.424;2023-09-19T05:58:08;14.53;;;5.60;;
8652;SDS011;4364;52.426;9.424;2023-09-19T06:00:36;12.63;;;6.20;;
8652;SDS011;4364;52.426;9.424;2023-09-19T06:03:05;16.73;;;5.80;;
8652;SDS011;4364;52.426;9.424;2023-09-19T06:05:32;14.37;;;6.10;;
8652;SDS011;4364;52.426;9.424;2023-09-19T06:07:59;14.20;;;6.23;;
8652;SDS011;4364;52.426;9.424;2023-09-19T06:10:34;16.77;;;5.40;;
8652;SDS011;4364;52.426;9.424;2023-09-19T06:13:04;11.53;;;5.43;;
8652;SDS011;4364;52.426;9.424;2023-09-19T06:15:32;11.13;;;4.77;;
8652;SDS011;4364;52.426;9.424;2023-09-19T06:17:59;17.50;;;5.17;;
8652;SDS011;4364;52.426;9.424;2023-09-19T06:20:27;13.50;;;4.47;;
8652;SDS011;4364;52.426;9.424;2023-09-19T06:22:54;14.07;;;5.47;;
8652;SDS011;4364;52.426;9.424;2023-09-19T06:25:21;16.53;;;4.57;;
8652;SDS011;4364;52.426;9.424;2023-09-19T06:27:49;13.67;;;4.80;;
8652;SDS011;4364;52.426;9.424;2023-09-19T06:30:18;10.03;;;4.37;;
8652;SDS011;4364;52.426;9.424;2023-09-19T06:32:45;13.93;;;4.50;;
8652;SDS011;4364;52.426;9.424;2023-09-19T06:35:12;12.90;;;4.23;;
8652;SDS011;4364;52.426;9.424;2023-09-19T06:37:40;13.10;;;3.87;;
8652;SDS011;4364;52.426;9.424;2023-09-19T06:40:11;13.33;;;4.07;;
8652;SDS011;4364;52.426;9.424;2023-09-19T06:42:42;11.40;;;4.23;;
8652;SDS011;4364;52.426;9.424;2023-09-19T06:45:11;13.57;;;3.70;;
8652;SDS011;4364;52.426;9.424;2023-09-19T06:47:40;11.40;;;3.80;;
8652;SDS011;4364;52.426;9.424;2023-09-19T06:50:07;13.30;;;3.27;;
8652;SDS011;4364;52.426;9.424;2023-09-19T06:52:40;10.40;;;3.63;;
8652;SDS011;4364;52.426;9.424;2023-09-19T06:55:07;11.37;;;2.77;;
8652;SDS011;4364;52.426;9.424;2023-09-19T06:57:36;10.83;;;3.70;;
8652;SDS011;4364;52.426;9.424;2023-09-19T07:00:02;10.73;;;3.00;;
8652;SDS011;4364;52.426;9.424;2023-09-19T07:02:35;12.87;;;3.47;;
8652;SDS011;4364;52.426;9.424;2023-09-19T07:05:01;13.30;;;3.40;;
8652;SDS011;4364;52.426;9.424;2023-09-19T07:07:28;10.27;;;3.00;;
8652;SDS011;4364;52.426;9.424;2023-09-19T07:09:55;13.30;;;3.20;;
8652;SDS011;4364;52.426;9.424;2023-09-19T07:12:22;12.50;;;3.70;;
8652;SDS011;4364;52.426;9.424;2023-09-19T07:14:49;11.50;;;3.30;;
8652;SDS011;4364;52.426;9.424;2023-09-19T07:17:16;11.47;;;2.93;;
8652;SDS011;4364;52.426;9.424;2023-09-19T07:19:45;10.33;;;2.83;;
8652;SDS011;4364;52.426;9.424;2023-09-19T07:22:11;13.93;;;3.43;;
8652;SDS011;4364;52.426;9.424;2023-09-19T07:24:38;12.97;;;3.53;;
8652;SDS011;4364;52.426;9.424;2023-09-19T07:27:04;9.93;;;3.07;;
8652;SDS011;4364;52.426;9.424;2023-09-19T07:29:31;9.00;;;3.07;;
8652;SDS011;4364;52.426;9.424;2023-09-19T07:31:58;12.67;;;3.27;;
8652;SDS011;4364;52.426;9.424;2023-09-19T07:34:24;9.00;;;3.23;;
8652;SDS011;4364;52.426;9.424;2023-09-19T07:36:51;9.60;;;3.23;;
8652;SDS011;4364;52.426;9.424;2023-09-19T07:39:18;14.77;;;2.77;;
8652;SDS011;4364;52.426;9.424;2023-09-19T07:41:49;11.17;;;2.70;;
8652;SDS011;4364;52.426;9.424;2023-09-19T07:44:16;11.40;;;3.13;;
8652;SDS011;4364;52.426;9.424;2023-09-19T07:46:43;9.70;;;2.63;;
8652;SDS011;4364;52.426;9.424;2023-09-19T07:49:10;11.43;;;3.13;;
8652;SDS011;4364;52.426;9.424;2023-09-19T07:51:37;10.53;;;2.90;;
8652;SDS011;4364;52.426;9.424;2023-09-19T07:54:04;10.57;;;3.00;;
8652;SDS011;4364;52.426;9.424;2023-09-19T07:56:31;11.23;;;3.33;;
8652;SDS011;4364;52.426;9.424;2023-09-19T07:58:58;9.07;;;2.70;;
8652;SDS011;4364;52.426;9.424;2023-09-19T08:01:26;11.77;;;3.03;;
8652;SDS011;4364;52.426;9.424;2023-09-19T08:03:54;8.40;;;3.00;;
8652;SDS011;4364;52.426;9.424;2023-09-19T08:06:21;8.43;;;3.00;;
8652;SDS011;4364;52.426;9.424;2023-09-19T08:08:50;8.13;;;2.87;;
8652;SDS011;4364;52.426;9.424;2023-09-19T08:11:20;9.37;;;2.77;;
8652;SDS011;4364;52.426;9.424;2023-09-19T08:13:47;10.27;;;2.63;;
8652;SDS011;4364;52.426;9.424;2023-09-19T08:16:15;9.40;;;2.70;;
8652;SDS011;4364;52.426;9.424;2023-09-19T08:18:47;11.93;;;3.03;;
8652;SDS011;4364;52.426;9.424;2023-09-19T08:21:18;9.27;;;2.87;;
8652;SDS011;4364;52.426;9.424;2023-09-19T08:23:45;7.27;;;2.80;;
8652;SDS011;4364;52.426;9.424;2023-09-19T08:26:11;10.43;;;2.77;;
8652;SDS011;4364;52.426;9.424;2023-09-19T08:28:38;8.20;;;2.90;;
8652;SDS011;4364;52.426;9.424;2023-09-19T08:31:07;11.13;;;2.97;;
8652;SDS011;4364;52.426;9.424;2023-09-19T08:33:35;11.00;;;2.70;;
8652;SDS011;4364;52.426;9.424;2023-09-19T08:36:03;10.53;;;2.60;;
8652;SDS011;4364;52.426;9.424;2023-09-19T08:38:31;9.93;;;2.73;;
8652;SDS011;4364;52.426;9.424;2023-09-19T08:40:59;10.80;;;3.00;;
8652;SDS011;4364;52.426;9.424;2023-09-19T08:43:26;9.07;;;2.90;;
8652;SDS011;4364;52.426;9.424;2023-09-19T08:45:58;7.53;;;2.70;;
8652;SDS011;4364;52.426;9.424;2023-09-19T08:48:36;10.73;;;2.70;;
8652;SDS011;4364;52.426;9.424;2023-09-19T08:51:12;9.50;;;2.90;;
8652;SDS011;4364;52.426;9.424;2023-09-19T08:54:03;12.00;;;2.87;;
8652;SDS011;4364;52.426;9.424;2023-09-19T08:56:33;9.53;;;2.73;;
8652;SDS011;4364;52.426;9.424;2023-09-19T08:59:03;9.50;;;3.30;;
8652;SDS011;4364;52.426;9.424;2023-09-19T09:01:37;7.57;;;2.80;;
8652;SDS011;4364;52.426;9.424;2023-09-19T09:04:06;8.40;;;3.10;;
8652;SDS011;4364;52.426;9.424;2023-09-19T09:06:35;8.27;;;2.80;;
8652;SDS011;4364;52.426;9.424;2023-09-19T09:09:02;8.47;;;3.10;;
8652;SDS011;4364;52.426;9.424;2023-09-19T09:11:33;8.53;;;2.80;;
8652;SDS011;4364;52.426;9.424;2023-09-19T09:13:59;8.90;;;2.67;;
8652;SDS011;4364;52.426;9.424;2023-09-19T09:16:29;9.10;;;4.10;;
8652;SDS011;4364;52.426;9.424;2023-09-19T09:18:56;10.57;;;3.40;;
8652;SDS011;4364;52.426;9.424;2023-09-19T09:21:24;8.83;;;2.97;;
8652;SDS011;4364;52.426;9.424;2023-09-19T09:23:52;13.03;;;3.40;;
8652;SDS011;4364;52.426;9.424;2023-09-19T09:29:04;8.83;;;3.10;;
8652;SDS011;4364;52.426;9.424;2023-09-19T09:31:31;8.80;;;3.27;;
8652;SDS011;4364;52.426;9.424;2023-09-19T09:33:58;6.27;;;2.70;;
8652;SDS011;4364;52.426;9.424;2023-09-19T09:36:38;9.80;;;3.23;;
8652;SDS011;4364;52.426;9.424;2023-09-19T09:39:06;9.50;;;3.10;;
8652;SDS011;4364;52.426;9.424;2023-09-19T09:41:44;9.67;;;3.13;;
8652;SDS011;4364;52.426;9.424;2023-09-19T09:44:15;7.57;;;2.80;;
8652;SDS011;4364;52.426;9.424;2023-09-19T09:46:45;7.97;;;2.80;;
8652;SDS011;4364;52.426;9.424;2023-09-19T09:49:22;6.90;;;2.37;;
8652;SDS011;4364;52.426;9.424;2023-09-19T09:52:01;10.73;;;3.23;;
8652;SDS011;4364;52.426;9.424;2023-09-19T09:55:02;9.53;;;3.30;;
8652;SDS011;4364;52.426;9.424;2023-09-19T09:57:34;8.00;;;2.80;;
8652;SDS011;4364;52.426;9.424;2023-09-19T10:00:01;13.33;;;2.80;;
8652;SDS011;4364;52.426;9.424;2023-09-19T10:02:38;8.67;;;3.10;;
8652;SDS011;4364;52.426;9.424;2023-09-19T10:07:45;13.00;;;3.57;;
8652;SDS011;4364;52.426;9.424;2023-09-19T10:10:33;10.50;;;3.53;;
8652;SDS011;4364;52.426;9.424;2023-09-19T10:13:10;7.47;;;3.10;;
8652;SDS011;4364;52.426;9.424;2023-09-19T10:15:48;11.33;;;3.53;;
8652;SDS011;4364;52.426;9.424;2023-09-19T10:18:22;11.13;;;3.47;;
8652;SDS011;4364;52.426;9.424;2023-09-19T10:20:50;9.17;;;3.00;;
8652;SDS011;4364;52.426;9.424;2023-09-19T10:23:18;7.67;;;3.00;;
8652;SDS011;4364;52.426;9.424;2023-09-19T10:25:50;11.80;;;3.53;;
8652;SDS011;4364;52.426;9.424;2023-09-19T10:28:19;7.53;;;3.37;;
8652;SDS011;4364;52.426;9.424;2023-09-19T10:30:51;10.33;;;3.60;;
8652;SDS011;4364;52.426;9.424;2023-09-19T10:33:22;12.60;;;4.00;;
8652;SDS011;4364;52.426;9.424;2023-09-19T10:35:52;13.40;;;4.30;;
8652;SDS011;4364;52.426;9.424;2023-09-19T10:38:23;5.70;;;3.40;;
8652;SDS011;4364;52.426;9.424;2023-09-19T10:40:51;9.40;;;3.70;;
8652;SDS011;4364;52.426;9.424;2023-09-19T10:43:20;6.80;;;3.60;;
8652;SDS011;4364;52.426;9.424;2023-09-19T10:45:50;9.17;;;3.87;;
8652;SDS011;4364;52.426;9.424;2023-09-19T10:48:19;11.80;;;4.03;;
8652;SDS011;4364;52.426;9.424;2023-09-19T10:54:17;7.53;;;3.53;;
8652;SDS011;4364;52.426;9.424;2023-09-19T10:56:21;15.00;;;3.50;;
8652;SDS011;4364;52.426;9.424;2023-09-19T11:01:45;10.37;;;4.07;;
8652;SDS011;4364;52.426;9.424;2023-09-19T11:04:20;9.07;;;3.87;;
8652;SDS011;4364;52.426;9.424;2023-09-19T11:06:59;9.43;;;4.03;;
8652;SDS011;4364;52.426;9.424;2023-09-19T11:14:59;9.13;;;3.30;;
8652;SDS011;4364;52.426;9.424;2023-09-19T11:28:41;10.27;;;3.17;;
8652;SDS011;4364;52.426;9.424;2023-09-19T11:30:49;10.77;;;3.67;;
8652;SDS011;4364;52.426;9.424;2023-09-19T11:33:21;9.80;;;3.20;;
8652;SDS011;4364;52.426;9.424;2023-09-19T11:36:01;12.07;;;3.47;;
8652;SDS011;4364;52.426;9.424;2023-09-19T11:43:52;7.37;;;2.87;;
8652;SDS011;4364;52.426;9.424;2023-09-19T11:46:23;5.90;;;2.90;;
8652;SDS011;4364;52.426;9.424;2023-09-19T11:48:51;5.93;;;3.10;;
8652;SDS011;4364;52.426;9.424;2023-09-19T11:51:19;9.50;;;3.07;;
8652;SDS011;4364;52.426;9.424;2023-09-19T11:53:46;9.53;;;3.73;;
8652;SDS011;4364;52.426;9.424;2023-09-19T11:56:22;7.57;;;3.13;;
8652;SDS011;4364;52.426;9.424;2023-09-19T11:58:52;8.77;;;3.40;;
8652;SDS011;4364;52.426;9.424;2023-09-19T12:01:29;10.37;;;3.13;;
8652;SDS011;4364;52.426;9.424;2023-09-19T12:03:58;6.73;;;3.10;;
8652;SDS011;4364;52.426;9.424;2023-09-19T12:06:27;7.40;;;3.13;;
8652;SDS011;4364;52.426;9.424;2023-09-19T12:09:02;9.70;;;3.70;;
8652;SDS011;4364;52.426;9.424;2023-09-19T12:11:33;7.63;;;3.13;;
8652;SDS011;4364;52.426;9.424;2023-09-19T12:14:10;7.33;;;2.90;;
8652;SDS011;4364;52.426;9.424;2023-09-19T12:16:37;11.77;;;3.07;;
8652;SDS011;4364;52.426;9.424;2023-09-19T12:19:20;8.00;;;3.20;;
8652;SDS011;4364;52.426;9.424;2023-09-19T12:22:11;9.07;;;3.70;;
8652;SDS011;4364;52.426;9.424;2023-09-19T12:24:36;10.17;;;3.03;;
8652;SDS011;4364;52.426;9.424;2023-09-19T12:27:05;11.57;;;3.37;;
8652;SDS011;4364;52.426;9.424;2023-09-19T12:29:41;9.77;;;3.10;;
8652;SDS011;4364;52.426;9.424;2023-09-19T12:32:12;9.97;;;3.37;;
8652;SDS011;4364;52.426;9.424;2023-09-19T12:34:40;10.10;;;3.30;;
8652;SDS011;4364;52.426;9.424;2023-09-19T12:37:13;8.60;;;3.00;;
8652;SDS011;4364;52.426;9.424;2023-09-19T12:39:54;12.43;;;3.27;;
8652;SDS011;4364;52.426;9.424;2023-09-19T12:42:41;9.37;;;2.93;;
8652;SDS011;4364;52.426;9.424;2023-09-19T12:45:08;8.30;;;3.00;;
8652;SDS011;4364;52.426;9.424;2023-09-19T12:47:35;9.33;;;3.40;;
8652;SDS011;4364;52.426;9.424;2023-09-19T12:50:05;8.17;;;2.80;;
8652;SDS011;4364;52.426;9.424;2023-09-19T12:52:34;11.03;;;3.57;;
8652;SDS011;4364;52.426;9.424;2023-09-19T12:55:04;10.57;;;3.40;;
8652;SDS011;4364;52.426;9.424;2023-09-19T12:57:34;9.93;;;3.53;;
8652;SDS011;4364;52.426;9.424;2023-09-19T13:00:02;10.40;;;3.10;;
8652;SDS011;4364;52.426;9.424;2023-09-19T13:02:32;8.13;;;2.80;;
8652;SDS011;4364;52.426;9.424;2023-09-19T13:04:59;7.80;;;3.00;;
8652;SDS011;4364;52.426;9.424;2023-09-19T13:07:43;6.90;;;2.50;;
8652;SDS011;4364;52.426;9.424;2023-09-19T13:10:11;8.20;;;3.30;;
8652;SDS011;4364;52.426;9.424;2023-09-19T13:12:41;9.60;;;3.10;;
8652;SDS011;4364;52.426;9.424;2023-09-19T13:15:10;8.23;;;3.30;;
8652;SDS011;4364;52.426;9.424;2023-09-19T13:17:44;10.40;;;3.40;;
8652;SDS011;4364;52.426;9.424;2023-09-19T13:20:26;7.97;;;3.10;;
8652;SDS011;4364;52.426;9.424;2023-09-19T13:22:58;9.10;;;3.30;;
8652;SDS011;4364;52.426;9.424;2023-09-19T13:25:27;8.60;;;3.50;;
8652;SDS011;4364;52.426;9.424;2023-09-19T13:27:59;9.07;;;3.13;;
8652;SDS011;4364;52.426;9.424;2023-09-19T13:30:27;11.30;;;3.33;;
8652;SDS011;4364;52.426;9.424;2023-09-19T13:33:04;8.43;;;3.53;;
8652;SDS011;4364;52.426;9.424;2023-09-19T13:35:36;9.43;;;3.10;;
8652;SDS011;4364;52.426;9.424;2023-09-19T13:38:04;8.37;;;2.70;;
8652;SDS011;4364;52.426;9.424;2023-09-19T13:40:33;10.27;;;3.40;;
8652;SDS011;4364;52.426;9.424;2023-09-19T13:43:01;6.20;;;3.37;;
8652;SDS011;4364;52.426;9.424;2023-09-19T13:45:27;8.40;;;3.13;;
8652;SDS011;4364;52.426;9.424;2023-09-19T13:47:56;7.40;;;2.97;;
8652;SDS011;4364;52.426;9.424;2023-09-19T13:50:24;7.37;;;3.17;;
8652;SDS011;4364;52.426;9.424;2023-09-19T13:52:52;6.13;;;3.10;;
8652;SDS011;4364;52.426;9.424;2023-09-19T13:55:20;9.00;;;3.17;;
8652;SDS011;4364;52.426;9.424;2023-09-19T13:57:50;7.17;;;3.00;;
8652;SDS011;4364;52.426;9.424;2023-09-19T14:00:18;9.97;;;3.30;;
8652;SDS011;4364;52.426;9.424;2023-09-19T14:02:45;8.93;;;3.23;;
8652;SDS011;4364;52.426;9.424;2023-09-19T14:05:14;7.00;;;3.13;;
8652;SDS011;4364;52.426;9.424;2023-09-19T14:07:43;7.60;;;3.10;;
8652;SDS011;4364;52.426;9.424;2023-09-19T14:10:10;7.67;;;2.80;;
8652;SDS011;4364;52.426;9.424;2023-09-19T14:12:39;8.37;;;3.27;;
8652;SDS011;4364;52.426;9.424;2023-09-19T14:15:09;5.60;;;2.70;;
8652;SDS011;4364;52.426;9.424;2023-09-19T14:17:37;7.00;;;3.10;;
8652;SDS011;4364;52.426;9.424;2023-09-19T14:20:04;9.07;;;3.00;;
8652;SDS011;4364;52.426;9.424;2023-09-19T14:22:33;9.40;;;3.10;;
8652;SDS011;4364;52.426;9.424;2023-09-19T14:25:00;8.97;;;3.20;;
8652;SDS011;4364;52.426;9.424;2023-09-19T14:27:27;7.93;;;2.83;;
8652;SDS011;4364;52.426;9.424;2023-09-19T14:29:53;11.27;;;3.00;;
8652;SDS011;4364;52.426;9.424;2023-09-19T14:32:20;8.00;;;3.00;;
8652;SDS011;4364;52.426;9.424;2023-09-19T14:34:46;7.27;;;2.73;;
8652;SDS011;4364;52.426;9.424;2023-09-19T14:37:13;7.23;;;2.83;;
8652;SDS011;4364;52.426;9.424;2023-09-19T14:39:40;6.27;;;2.70;;
8652;SDS011;4364;52.426;9.424;2023-09-19T14:42:08;5.37;;;2.83;;
8652;SDS011;4364;52.426;9.424;2023-09-19T14:44:35;8.40;;;2.97;;
8652;SDS011;4364;52.426;9.424;2023-09-19T14:47:03;7.20;;;3.00;;
8652;SDS011;4364;52.426;9.424;2023-09-19T14:49:33;7.17;;;2.80;;
8652;SDS011;4364;52.426;9.424;2023-09-19T14:52:01;8.53;;;2.60;;
8652;SDS011;4364;52.426;9.424;2023-09-19T14:54:30;8.20;;;2.93;;
8652;SDS011;4364;52.426;9.424;2023-09-19T14:56:57;9.87;;;3.17;;
8652;SDS011;4364;52.426;9.424;2023-09-19T14:59:31;7.33;;;2.50;;
8652;SDS011;4364;52.426;9.424;2023-09-19T15:01:58;7.43;;;2.60;;
8652;SDS011;4364;52.426;9.424;2023-09-19T15:04:25;6.97;;;2.83;;
8652;SDS011;4364;52.426;9.424;2023-09-19T15:06:53;8.67;;;2.73;;
8652;SDS011;4364;52.426;9.424;2023-09-19T15:09:21;7.87;;;2.90;;
8652;SDS011;4364;52.426;9.424;2023-09-19T15:11:52;8.07;;;2.70;;
8652;SDS011;4364;52.426;9.424;2023-09-19T15:14:20;6.87;;;2.43;;
8652;SDS011;4364;52.426;9.424;2023-09-19T15:16:47;10.33;;;2.67;;
8652;SDS011;4364;52.426;9.424;2023-09-19T15:19:15;6.13;;;2.40;;
8652;SDS011;4364;52.426;9.424;2023-09-19T15:21:43;5.27;;;2.07;;
8652;SDS011;4364;52.426;9.424;2023-09-19T15:24:09;5.50;;;2.50;;
8652;SDS011;4364;52.426;9.424;2023-09-19T15:26:36;9.43;;;3.33;;
8652;SDS011;4364;52.426;9.424;2023-09-19T15:29:06;6.50;;;2.67;;
8652;SDS011;4364;52.426;9.424;2023-09-19T15:31:33;6.47;;;2.50;;
8652;SDS011;4364;52.426;9.424;2023-09-19T15:34:03;5.37;;;2.40;;
8652;SDS011;4364;52.426;9.424;2023-09-19T15:36:30;10.07;;;2.70;;
8652;SDS011;4364;52.426;9.424;2023-09-19T15:39:03;6.73;;;2.50;;
8652;SDS011;4364;52.426;9.424;2023-09-19T15:41:40;6.97;;;2.63;;
8652;SDS011;4364;52.426;9.424;2023-09-19T15:44:11;5.53;;;2.63;;
8652;SDS011;4364;52.426;9.424;2023-09-19T15:46:42;9.40;;;2.60;;
8652;SDS011;4364;52.426;9.424;2023-09-19T15:49:10;5.20;;;2.30;;
8652;SDS011;4364;52.426;9.424;2023-09-19T15:51:37;4.57;;;2.00;;
8652;SDS011;4364;52.426;9.424;2023-09-19T15:54:07;7.67;;;2.83;;
8652;SDS011;4364;52.426;9.424;2023-09-19T15:56:34;6.23;;;2.33;;
8652;SDS011;4364;52.426;9.424;2023-09-19T15:59:01;8.17;;;2.50;;
8652;SDS011;4364;52.426;9.424;2023-09-19T16:01:27;5.33;;;2.00;;
8652;SDS011;4364;52.426;9.424;2023-09-19T16:03:54;8.03;;;2.40;;
8652;SDS011;4364;52.426;9.424;2023-09-19T16:06:25;8.50;;;2.63;;
8652;SDS011;4364;52.426;9.424;2023-09-19T16:08:54;7.17;;;2.50;;
8652;SDS011;4364;52.426;9.424;2023-09-19T16:11:22;7.10;;;2.47;;